createdAt,value
2016-04-27T00:00:43.638Z,0
2016-04-27T00:01:43.796Z,0
2016-04-27T00:02:43.643Z,0
2016-04-27T00:03:43.646Z,0
2016-04-27T00:04:43.649Z,0
2016-04-27T00:05:44.838Z,0
2016-04-27T00:06:49.998Z,0
2016-04-27T00:07:43.672Z,0
2016-04-27T00:08:43.644Z,0
2016-04-27T00:09:43.646Z,0
2016-04-27T00:10:43.633Z,0
2016-04-27T00:11:45.839Z,0
2016-04-27T00:12:43.639Z,0
2016-04-27T00:13:43.626Z,0
2016-04-27T00:14:43.628Z,0
2016-04-27T00:15:43.631Z,0
2016-04-27T00:16:43.649Z,0
2016-04-27T00:17:43.636Z,0
2016-04-27T00:18:43.623Z,0
2016-04-27T00:19:43.625Z,0
2016-04-27T00:20:43.645Z,0
2016-04-27T00:21:44.866Z,0
2016-04-27T00:22:44.088Z,0
2016-04-27T00:23:43.606Z,0
2016-04-27T00:24:43.624Z,0
2016-04-27T00:25:43.627Z,0
2016-04-27T00:26:43.629Z,0
2016-04-27T00:27:43.616Z,0
2016-04-27T00:28:43.494Z,0
2016-04-27T00:29:43.638Z,0
2016-04-27T00:30:43.609Z,0
2016-04-27T00:31:43.643Z,0
2016-04-27T00:32:43.630Z,0
2016-04-27T00:33:43.602Z,0
2016-04-27T00:34:43.635Z,0
2016-04-27T00:35:43.482Z,0
2016-04-27T00:36:43.468Z,0
2016-04-27T00:37:43.612Z,0
2016-04-27T00:38:43.615Z,0
2016-04-27T00:39:43.617Z,0
2016-04-27T00:40:43.702Z,0
2016-04-27T00:41:48.275Z,0
2016-04-27T00:42:43.900Z,0
2016-04-27T00:43:44.674Z,0
2016-04-27T00:44:57.048Z,0
2016-04-27T00:45:43.699Z,0
2016-04-27T00:46:43.671Z,0
2016-04-27T00:47:43.595Z,0
2016-04-27T00:48:43.598Z,0
2016-04-27T00:49:43.663Z,0
2016-04-27T00:50:43.604Z,0
2016-04-27T00:51:43.668Z,0
2016-04-27T00:52:43.609Z,0
2016-04-27T00:53:43.627Z,0
2016-04-27T00:54:43.613Z,0
2016-04-27T00:55:43.695Z,0
2016-04-27T00:56:43.589Z,0
2016-04-27T00:57:43.591Z,0
2016-04-27T00:58:43.608Z,0
2016-04-27T00:59:43.581Z,0
2016-04-27T01:00:43.614Z,0
2016-04-27T01:01:43.602Z,0
2016-04-27T01:02:43.589Z,0
2016-04-27T01:03:43.607Z,0
2016-04-27T01:04:43.610Z,0
2016-04-27T01:05:43.627Z,0
2016-04-27T01:06:43.991Z,0
2016-04-27T01:07:43.586Z,0
2016-04-27T01:08:43.588Z,0
2016-04-27T01:09:43.592Z,0
2016-04-27T01:10:43.594Z,0
2016-04-27T01:11:43.612Z,0
2016-04-27T01:12:43.599Z,0
2016-04-27T01:13:43.602Z,0
2016-04-27T01:14:43.590Z,0
2016-04-27T01:15:43.607Z,0
2016-04-27T01:16:43.579Z,0
2016-04-27T01:17:43.582Z,0
2016-04-27T01:18:43.615Z,0
2016-04-27T01:19:43.587Z,0
2016-04-27T01:20:43.434Z,0
2016-04-27T01:21:44.483Z,0
2016-04-27T01:22:43.585Z,0
2016-04-27T01:23:43.574Z,0
2016-04-27T01:24:43.577Z,0
2016-04-27T01:25:43.580Z,0
2016-04-27T01:26:43.598Z,0
2016-04-27T01:27:43.585Z,0
2016-04-27T01:28:43.588Z,0
2016-04-27T01:29:43.622Z,0
2016-04-27T01:30:43.594Z,0
2016-04-27T01:31:43.596Z,0
2016-04-27T01:32:43.583Z,0
2016-04-27T01:33:43.571Z,0
2016-04-27T01:34:43.574Z,0
2016-04-27T01:35:43.576Z,0
2016-04-27T01:36:43.797Z,0
2016-04-27T01:37:43.582Z,0
2016-04-27T01:38:43.568Z,0
2016-04-27T01:39:43.571Z,0
2016-04-27T01:40:43.573Z,0
2016-04-27T01:41:43.560Z,0
2016-04-27T01:42:43.563Z,0
2016-04-27T01:43:43.581Z,0
2016-04-27T01:44:43.568Z,0
2016-04-27T01:45:43.571Z,0
2016-04-27T01:46:43.574Z,0
2016-04-27T01:47:43.561Z,0
2016-04-27T01:48:43.564Z,0
2016-04-27T01:49:43.583Z,0
2016-04-27T01:50:43.571Z,0
2016-04-27T01:51:42.604Z,0
2016-04-27T01:52:43.576Z,0
2016-04-27T01:53:43.579Z,0
2016-04-27T01:54:43.565Z,0
2016-04-27T01:55:43.551Z,0
2016-04-27T01:56:43.555Z,0
2016-04-27T01:57:43.807Z,0
2016-04-27T01:58:43.560Z,0
2016-04-27T01:59:43.562Z,0
2016-04-27T02:00:43.550Z,0
2016-04-27T02:01:43.568Z,0
2016-04-27T02:02:43.571Z,0
2016-04-27T02:03:43.558Z,0
2016-04-27T02:04:43.576Z,0
2016-04-27T02:05:43.579Z,0
2016-04-27T02:06:43.301Z,0
2016-04-27T02:07:43.553Z,0
2016-04-27T02:08:43.541Z,0
2016-04-27T02:09:43.559Z,0
2016-04-27T02:10:43.547Z,0
2016-04-27T02:11:43.564Z,0
2016-04-27T02:12:43.551Z,0
2016-04-27T02:13:43.554Z,0
2016-04-27T02:14:43.557Z,0
2016-04-27T02:15:43.574Z,0
2016-04-27T02:16:43.546Z,0
2016-04-27T02:17:43.533Z,0
2016-04-27T02:18:43.552Z,0
2016-04-27T02:19:43.554Z,0
2016-04-27T02:21:15.779Z,0
2016-04-27T02:21:43.560Z,0
2016-04-27T02:22:43.547Z,0
2016-04-27T02:23:43.549Z,0
2016-04-27T02:24:43.552Z,0
2016-04-27T02:25:43.540Z,0
2016-04-27T02:26:43.558Z,0
2016-04-27T02:27:43.544Z,0
2016-04-27T02:28:43.547Z,0
2016-04-27T02:29:43.551Z,0
2016-04-27T02:30:43.537Z,0
2016-04-27T02:31:43.539Z,0
2016-04-27T02:32:43.542Z,0
2016-04-27T02:33:43.561Z,0
2016-04-27T02:34:43.532Z,0
2016-04-27T02:35:43.534Z,0
2016-04-27T02:36:45.570Z,0
2016-04-27T02:37:43.555Z,0
2016-04-27T02:38:43.543Z,0
2016-04-27T02:39:43.561Z,0
2016-04-27T02:40:43.533Z,0
2016-04-27T02:41:43.536Z,0
2016-04-27T02:42:43.577Z,0
2016-04-27T02:43:43.590Z,0
2016-04-27T02:44:43.618Z,0
2016-04-27T02:45:43.680Z,0
2016-04-27T02:46:43.708Z,0
2016-04-27T02:47:43.747Z,0
2016-04-27T02:48:43.782Z,0
2016-04-27T02:49:43.753Z,0
2016-04-27T02:50:43.788Z,0
2016-04-27T02:51:43.867Z,0
2016-04-27T02:52:43.852Z,0
2016-04-27T02:53:43.830Z,0
2016-04-27T02:54:43.837Z,0
2016-04-27T02:55:43.830Z,0
2016-04-27T02:56:43.868Z,0
2016-04-27T02:57:43.829Z,0
2016-04-27T02:58:43.833Z,0
2016-04-27T02:59:43.839Z,0
2016-04-27T03:00:43.843Z,0
2016-04-27T03:01:43.847Z,0
2016-04-27T03:02:43.884Z,0
2016-04-27T03:03:43.840Z,0
2016-04-27T03:04:43.859Z,0
2016-04-27T03:05:43.847Z,0
2016-04-27T03:06:45.023Z,0
2016-04-27T03:07:43.697Z,0
2016-04-27T03:08:43.841Z,0
2016-04-27T03:09:43.829Z,0
2016-04-27T03:10:43.863Z,0
2016-04-27T03:11:43.850Z,0
2016-04-27T03:12:43.838Z,0
2016-04-27T03:13:43.841Z,0
2016-04-27T03:14:43.859Z,0
2016-04-27T03:15:43.845Z,0
2016-04-27T03:16:43.848Z,0
2016-04-27T03:17:43.851Z,0
2016-04-27T03:18:43.853Z,0
2016-04-27T03:19:43.841Z,0
2016-04-27T03:20:43.844Z,0
2016-04-27T03:21:43.800Z,0
2016-04-27T03:22:43.849Z,0
2016-04-27T03:23:43.836Z,0
2016-04-27T03:24:43.839Z,0
2016-04-27T03:25:43.717Z,0
2016-04-27T03:26:43.844Z,0
2016-04-27T03:27:43.846Z,0
2016-04-27T03:28:43.835Z,0
2016-04-27T03:29:43.837Z,0
2016-04-27T03:30:43.840Z,0
2016-04-27T03:31:43.827Z,0
2016-04-27T03:32:43.829Z,0
2016-04-27T03:33:43.832Z,0
2016-04-27T03:34:43.835Z,0
2016-04-27T03:35:43.821Z,0
2016-04-27T03:36:43.684Z,0
2016-04-27T03:37:43.234Z,0
2016-04-27T03:38:43.829Z,0
2016-04-27T03:39:43.817Z,0
2016-04-27T03:40:43.835Z,0
2016-04-27T03:41:43.822Z,0
2016-04-27T03:42:43.825Z,0
2016-04-27T03:43:43.828Z,0
2016-04-27T03:44:43.845Z,0
2016-04-27T03:45:43.817Z,0
2016-04-27T03:46:43.836Z,0
2016-04-27T03:47:43.807Z,0
2016-04-27T03:48:43.825Z,0
2016-04-27T03:49:43.844Z,0
2016-04-27T03:50:43.814Z,0
2016-04-27T03:51:43.397Z,0
2016-04-27T03:52:45.399Z,0
2016-04-27T03:53:43.823Z,0
2016-04-27T03:54:43.811Z,0
2016-04-27T03:55:43.813Z,0
2016-04-27T03:56:43.816Z,0
2016-04-27T03:57:43.818Z,0
2016-04-27T03:58:43.821Z,0
2016-04-27T03:59:43.824Z,0
2016-04-27T04:00:43.810Z,0
2016-04-27T04:01:43.813Z,0
2016-04-27T04:02:43.816Z,0
2016-04-27T04:03:43.819Z,0
2016-04-27T04:04:43.821Z,0
2016-04-27T04:05:43.825Z,0
2016-04-27T04:06:43.515Z,0
2016-04-27T04:07:44.502Z,0
2016-04-27T04:08:43.818Z,0
2016-04-27T04:09:43.805Z,0
2016-04-27T04:10:43.807Z,0
2016-04-27T04:11:43.811Z,0
2016-04-27T04:12:43.829Z,0
2016-04-27T04:13:43.815Z,0
2016-04-27T04:14:43.818Z,0
2016-04-27T04:15:43.805Z,0
2016-04-27T04:16:43.792Z,0
2016-04-27T04:17:43.655Z,0
2016-04-27T04:18:43.798Z,0
2016-04-27T04:19:43.660Z,0
2016-04-27T04:20:43.804Z,0
2016-04-27T04:21:45.040Z,0
2016-04-27T04:22:45.047Z,0
2016-04-27T04:23:43.799Z,0
2016-04-27T04:24:43.818Z,0
2016-04-27T04:25:43.788Z,0
2016-04-27T04:26:43.808Z,5
2016-04-27T04:27:43.810Z,5
2016-04-27T04:28:43.797Z,0
2016-04-27T04:29:43.800Z,0
2016-04-27T04:30:43.803Z,0
2016-04-27T04:31:43.790Z,0
2016-04-27T04:32:43.808Z,0
2016-04-27T04:33:43.810Z,0
2016-04-27T04:34:43.798Z,5
2016-04-27T04:35:43.800Z,5
2016-04-27T04:36:44.537Z,5
2016-04-27T04:37:43.634Z,5
2016-04-27T04:38:43.809Z,5
2016-04-27T04:39:43.779Z,10
2016-04-27T04:40:43.814Z,10
2016-04-27T04:41:43.770Z,10
2016-04-27T04:42:43.803Z,10
2016-04-27T04:43:43.791Z,10
2016-04-27T04:44:43.778Z,15
2016-04-27T04:45:43.781Z,15
2016-04-27T04:46:43.798Z,15
2016-04-27T04:47:43.801Z,15
2016-04-27T04:48:43.789Z,20
2016-04-27T04:49:43.806Z,20
2016-04-27T04:50:43.778Z,25
2016-04-27T04:51:46.156Z,25
2016-04-27T04:52:43.783Z,25
2016-04-27T04:53:43.787Z,25
2016-04-27T04:54:43.789Z,25
2016-04-27T04:55:43.776Z,25
2016-04-27T04:56:43.763Z,25
2016-04-27T04:57:43.782Z,25
2016-04-27T04:58:43.784Z,25
2016-04-27T04:59:43.771Z,25
2016-04-27T05:00:43.791Z,25
2016-04-27T05:01:43.668Z,30
2016-04-27T05:02:43.764Z,25
2016-04-27T05:03:43.766Z,25
2016-04-27T05:04:43.769Z,30
2016-04-27T05:05:43.788Z,25
2016-04-27T05:06:45.774Z,30
2016-04-27T05:07:43.777Z,30
2016-04-27T05:08:43.779Z,30
2016-04-27T05:09:43.782Z,30
2016-04-27T05:10:43.770Z,30
2016-04-27T05:11:43.773Z,30
2016-04-27T05:12:43.776Z,30
2016-04-27T05:13:43.778Z,25
2016-04-27T05:14:43.781Z,25
2016-04-27T05:15:43.767Z,25
2016-04-27T05:16:43.770Z,30
2016-04-27T05:17:43.788Z,25
2016-04-27T05:18:43.759Z,25
2016-04-27T05:19:43.762Z,30
2016-04-27T05:20:43.781Z,30
2016-04-27T05:21:47.409Z,40
2016-04-27T05:22:43.770Z,55
2016-04-27T05:23:43.773Z,80
2016-04-27T05:24:43.760Z,65
2016-04-27T05:25:43.794Z,60
2016-04-27T05:26:43.781Z,80
2016-04-27T05:27:43.783Z,75
2016-04-27T05:28:43.756Z,95
2016-04-27T05:29:45.133Z,85
2016-04-27T05:30:43.761Z,90
2016-04-27T05:31:43.749Z,95
2016-04-27T05:32:43.751Z,100
2016-04-27T05:33:43.769Z,125
2016-04-27T05:34:43.771Z,300
2016-04-27T05:35:43.759Z,160
2016-04-27T05:36:43.480Z,155
2016-04-27T05:37:44.530Z,445
2016-04-27T05:38:43.751Z,465
2016-04-27T05:39:43.754Z,450
2016-04-27T05:40:43.757Z,475
2016-04-27T05:41:43.759Z,475
2016-04-27T05:42:43.762Z,295
2016-04-27T05:43:43.748Z,495
2016-04-27T05:44:43.751Z,190
2016-04-27T05:45:43.770Z,465
2016-04-27T05:46:43.773Z,495
2016-04-27T05:47:43.760Z,495
2016-04-27T05:48:43.762Z,445
2016-04-27T05:49:43.875Z,500
2016-04-27T05:50:43.767Z,515
2016-04-27T05:51:43.989Z,505
2016-04-27T05:52:43.492Z,530
2016-04-27T05:53:43.745Z,560
2016-04-27T05:54:43.763Z,560
2016-04-27T05:55:43.781Z,535
2016-04-27T05:56:43.769Z,530
2016-04-27T05:57:43.772Z,545
2016-04-27T05:58:43.774Z,555
2016-04-27T05:59:43.824Z,585
2016-04-27T06:00:43.810Z,570
2016-04-27T06:01:43.782Z,580
2016-04-27T06:02:43.785Z,580
2016-04-27T06:03:43.788Z,595
2016-04-27T06:04:43.821Z,605
2016-04-27T06:05:43.793Z,630
2016-04-27T06:06:44.701Z,610
2016-04-27T06:07:43.532Z,630
2016-04-27T06:08:43.816Z,655
2016-04-27T06:09:43.803Z,665
2016-04-27T06:10:43.822Z,645
2016-04-27T06:11:43.824Z,620
2016-04-27T06:12:43.843Z,645
2016-04-27T06:13:43.862Z,650
2016-04-27T06:14:43.832Z,630
2016-04-27T06:15:43.851Z,635
2016-04-27T06:16:43.853Z,635
2016-04-27T06:17:43.840Z,650
2016-04-27T06:18:43.890Z,680
2016-04-27T06:19:43.892Z,660
2016-04-27T06:20:43.865Z,660
2016-04-27T06:21:44.039Z,680
2016-04-27T06:22:46.432Z,695
2016-04-27T06:23:43.904Z,710
2016-04-27T06:24:45.281Z,710
2016-04-27T06:25:43.909Z,710
2016-04-27T06:26:43.896Z,730
2016-04-27T06:27:43.914Z,760
2016-04-27T06:28:43.917Z,730
2016-04-27T06:29:43.919Z,715
2016-04-27T06:30:43.922Z,725
2016-04-27T06:31:43.941Z,705
2016-04-27T06:32:44.099Z,705
2016-04-27T06:33:43.946Z,765
2016-04-27T06:34:43.949Z,780
2016-04-27T06:35:43.966Z,765
2016-04-27T06:36:43.969Z,755
2016-04-27T06:37:45.940Z,760
2016-04-27T06:38:43.991Z,205
2016-04-27T06:39:43.977Z,765
2016-04-27T06:40:43.996Z,610
2016-04-27T06:41:44.015Z,815
2016-04-27T06:42:44.001Z,290
2016-04-27T06:43:44.035Z,235
2016-04-27T06:44:44.007Z,775
2016-04-27T06:45:44.025Z,345
2016-04-27T06:46:44.028Z,195
2016-04-27T06:47:44.046Z,625
2016-04-27T06:48:44.049Z,230
2016-04-27T06:49:44.052Z,285
2016-04-27T06:50:44.070Z,925
2016-04-27T06:51:44.416Z,825
2016-04-27T06:52:43.795Z,180
2016-04-27T06:53:44.078Z,170
2016-04-27T06:54:44.143Z,185
2016-04-27T06:55:44.114Z,825
2016-04-27T06:56:44.102Z,865
2016-04-27T06:57:44.120Z,860
2016-04-27T06:58:44.123Z,905
2016-04-27T06:59:44.125Z,970
2016-04-27T07:00:44.144Z,950
2016-04-27T07:01:44.147Z,900
2016-04-27T07:02:44.149Z,880
2016-04-27T07:03:44.167Z,895
2016-04-27T07:04:44.185Z,875
2016-04-27T07:05:44.157Z,955
2016-04-27T07:06:44.191Z,970
2016-04-27T07:07:44.397Z,435
2016-04-27T07:08:44.244Z,970
2016-04-27T07:09:44.183Z,945
2016-04-27T07:10:44.202Z,965
2016-04-27T07:11:44.221Z,1030
2016-04-27T07:12:44.238Z,825
2016-04-27T07:13:44.226Z,300
2016-04-27T07:14:44.243Z,1035
2016-04-27T07:15:44.262Z,1010
2016-04-27T07:16:44.249Z,1025
2016-04-27T07:17:44.252Z,270
2016-04-27T07:18:44.287Z,190
2016-04-27T07:19:44.320Z,475
2016-04-27T07:20:44.276Z,530
2016-04-27T07:21:46.356Z,1035
2016-04-27T07:22:45.250Z,1040
2016-04-27T07:23:44.314Z,1035
2016-04-27T07:24:44.318Z,1065
2016-04-27T07:25:44.336Z,1160
2016-04-27T07:26:45.322Z,1185
2016-04-27T07:27:44.342Z,1140
2016-04-27T07:28:44.375Z,1165
2016-04-27T07:29:44.346Z,1160
2016-04-27T07:30:44.365Z,1150
2016-04-27T07:31:45.352Z,1115
2016-04-27T07:32:44.370Z,1155
2016-04-27T07:33:44.420Z,1155
2016-04-27T07:34:44.391Z,1155
2016-04-27T07:35:44.410Z,1115
2016-04-27T07:36:46.210Z,1115
2016-04-27T07:37:47.462Z,1120
2016-04-27T07:38:44.433Z,1080
2016-04-27T07:39:44.452Z,1095
2016-04-27T07:40:44.454Z,1050
2016-04-27T07:41:46.863Z,1145
2016-04-27T07:42:44.476Z,1170
2016-04-27T07:43:44.479Z,1100
2016-04-27T07:44:44.512Z,1175
2016-04-27T07:45:44.514Z,1230
2016-04-27T07:46:45.987Z,1175
2016-04-27T07:47:44.521Z,1100
2016-04-27T07:48:44.538Z,1095
2016-04-27T07:49:44.557Z,1120
2016-04-27T07:50:44.590Z,1150
2016-04-27T07:51:46.281Z,1095
2016-04-27T07:52:44.971Z,1130
2016-04-27T07:53:44.598Z,1165
2016-04-27T07:54:44.586Z,1100
2016-04-27T07:55:44.604Z,1140
2016-04-27T07:56:46.138Z,1215
2016-04-27T07:57:44.609Z,230
2016-04-27T07:58:44.643Z,425
2016-04-27T07:59:44.630Z,1245
2016-04-27T08:00:44.680Z,265
2016-04-27T08:01:48.761Z,1325
2016-04-27T08:02:44.670Z,1320
2016-04-27T08:03:44.657Z,1380
2016-04-27T08:04:44.675Z,1325
2016-04-27T08:05:44.693Z,1415
2016-04-27T08:06:46.119Z,1340
2016-04-27T08:07:44.839Z,1170
2016-04-27T08:08:44.733Z,1170
2016-04-27T08:09:44.735Z,1075
2016-04-27T08:10:44.722Z,1040
2016-04-27T08:11:47.335Z,970
2016-04-27T08:12:44.743Z,850
2016-04-27T08:13:44.746Z,775
2016-04-27T08:14:44.765Z,260
2016-04-27T08:15:44.752Z,630
2016-04-27T08:16:44.785Z,225
2016-04-27T08:17:44.804Z,190
2016-04-27T08:18:44.806Z,160
2016-04-27T08:19:44.810Z,825
2016-04-27T08:20:44.843Z,705
2016-04-27T08:21:45.643Z,180
2016-04-27T08:22:44.709Z,630
2016-04-27T08:23:44.836Z,620
2016-04-27T08:24:44.854Z,195
2016-04-27T08:25:44.872Z,720
2016-04-27T08:26:47.734Z,200
2016-04-27T08:27:44.877Z,220
2016-04-27T08:28:44.881Z,755
2016-04-27T08:29:44.898Z,650
2016-04-27T08:30:44.901Z,230
2016-04-27T08:31:46.342Z,220
2016-04-27T08:32:44.935Z,220
2016-04-27T08:33:44.923Z,265
2016-04-27T08:34:44.925Z,195
2016-04-27T08:35:44.943Z,195
2016-04-27T08:36:49.212Z,205
2016-04-27T08:37:45.667Z,190
2016-04-27T08:38:44.967Z,160
2016-04-27T08:39:44.969Z,185
2016-04-27T08:40:45.004Z,190
2016-04-27T08:41:45.757Z,195
2016-04-27T08:42:44.993Z,180
2016-04-27T08:43:45.012Z,155
2016-04-27T08:44:45.014Z,140
2016-04-27T08:45:45.018Z,145
2016-04-27T08:46:45.004Z,130
2016-04-27T08:47:45.037Z,130
2016-04-27T08:48:45.041Z,145
2016-04-27T08:49:45.043Z,195
2016-04-27T08:50:45.046Z,250
2016-04-27T08:51:45.065Z,295
2016-04-27T08:52:45.145Z,270
2016-04-27T08:53:45.070Z,290
2016-04-27T08:54:45.072Z,275
2016-04-27T08:55:45.076Z,260
2016-04-27T08:56:45.093Z,225
2016-04-27T08:57:45.095Z,230
2016-04-27T08:58:45.099Z,260
2016-04-27T08:59:46.648Z,290
2016-04-27T09:00:45.120Z,280
2016-04-27T09:01:45.106Z,260
2016-04-27T09:02:45.109Z,240
2016-04-27T09:03:45.128Z,250
2016-04-27T09:04:46.725Z,280
2016-04-27T09:05:45.133Z,285
2016-04-27T09:06:45.136Z,275
2016-04-27T09:07:45.373Z,275
2016-04-27T09:08:45.172Z,265
2016-04-27T09:09:46.972Z,265
2016-04-27T09:10:45.163Z,230
2016-04-27T09:11:45.181Z,220
2016-04-27T09:12:45.199Z,195
2016-04-27T09:13:45.185Z,170
2016-04-27T09:14:45.188Z,150
2016-04-27T09:15:45.207Z,150
2016-04-27T09:16:46.491Z,165
2016-04-27T09:17:45.197Z,170
2016-04-27T09:18:45.215Z,170
2016-04-27T09:19:45.234Z,170
2016-04-27T09:20:45.252Z,160
2016-04-27T09:21:45.239Z,150
2016-04-27T09:22:45.132Z,135
2016-04-27T09:23:45.291Z,135
2016-04-27T09:24:45.278Z,165
2016-04-27T09:25:45.250Z,190
2016-04-27T09:26:47.939Z,210
2016-04-27T09:27:45.271Z,215
2016-04-27T09:28:45.273Z,220
2016-04-27T09:29:45.276Z,240
2016-04-27T09:30:45.294Z,230
2016-04-27T09:31:45.281Z,210
2016-04-27T09:32:45.284Z,210
2016-04-27T09:33:45.303Z,205
2016-04-27T09:34:45.305Z,210
2016-04-27T09:35:45.308Z,215
2016-04-27T09:36:45.701Z,185
2016-04-27T09:37:45.453Z,170
2016-04-27T09:38:45.331Z,175
2016-04-27T09:39:45.333Z,200
2016-04-27T09:40:45.337Z,195
2016-04-27T09:41:45.339Z,220
2016-04-27T09:42:45.358Z,240
2016-04-27T09:43:45.345Z,255
2016-04-27T09:44:45.347Z,245
2016-04-27T09:45:45.366Z,240
2016-04-27T09:46:45.369Z,235
2016-04-27T09:47:45.371Z,245
2016-04-27T09:48:45.374Z,230
2016-04-27T09:49:45.377Z,200
2016-04-27T09:50:45.380Z,175
2016-04-27T09:51:45.382Z,145
2016-04-27T09:52:45.041Z,130
2016-04-27T09:53:44.982Z,130
2016-04-27T09:54:45.421Z,145
2016-04-27T09:55:45.408Z,190
2016-04-27T09:56:46.240Z,200
2016-04-27T09:57:45.414Z,190
2016-04-27T09:58:45.448Z,175
2016-04-27T09:59:45.435Z,170
2016-04-27T10:00:45.437Z,175
2016-04-27T10:01:45.425Z,165
2016-04-27T10:02:45.443Z,165
2016-04-27T10:03:45.508Z,165
2016-04-27T10:04:45.448Z,170
2016-04-27T10:05:45.483Z,190
2016-04-27T10:06:45.470Z,195
2016-04-27T10:07:45.425Z,190
2016-04-27T10:08:45.474Z,185
2016-04-27T10:09:45.494Z,180
2016-04-27T10:10:45.511Z,190
2016-04-27T10:11:47.888Z,160
2016-04-27T10:12:45.502Z,145
2016-04-27T10:13:45.488Z,165
2016-04-27T10:14:45.491Z,195
2016-04-27T10:15:45.509Z,175
2016-04-27T10:16:47.059Z,165
2016-04-27T10:17:45.515Z,175
2016-04-27T10:18:45.533Z,150
2016-04-27T10:19:45.521Z,125
2016-04-27T10:20:45.523Z,105
2016-04-27T10:21:46.541Z,100
2016-04-27T10:22:49.389Z,110
2016-04-27T10:23:48.626Z,120
2016-04-27T10:24:45.550Z,145
2016-04-27T10:25:45.539Z,205
2016-04-27T10:26:45.541Z,235
2016-04-27T10:27:45.559Z,235
2016-04-27T10:28:45.563Z,210
2016-04-27T10:29:45.565Z,225
2016-04-27T10:30:45.568Z,200
2016-04-27T10:31:46.914Z,195
2016-04-27T10:32:45.589Z,175
2016-04-27T10:33:45.623Z,180
2016-04-27T10:34:45.595Z,180
2016-04-27T10:35:45.597Z,180
2016-04-27T10:36:47.006Z,180
2016-04-27T10:37:46.478Z,195
2016-04-27T10:38:45.964Z,195
2016-04-27T10:39:45.592Z,185
2016-04-27T10:40:45.610Z,190
2016-04-27T10:41:44.891Z,170
2016-04-27T10:42:45.631Z,150
2016-04-27T10:43:45.619Z,130
2016-04-27T10:44:45.636Z,115
2016-04-27T10:45:48.499Z,130
2016-04-27T10:46:45.752Z,130
2016-04-27T10:47:45.517Z,125
2016-04-27T10:48:45.645Z,120
2016-04-27T10:49:45.647Z,135
2016-04-27T10:50:45.635Z,145
2016-04-27T10:51:45.763Z,135
2016-04-27T10:52:45.265Z,120
2016-04-27T10:53:45.362Z,110
2016-04-27T10:54:45.677Z,110
2016-04-27T10:55:45.664Z,105
2016-04-27T10:56:45.651Z,115
2016-04-27T10:57:45.684Z,120
2016-04-27T10:58:45.688Z,145
2016-04-27T10:59:45.690Z,165
2016-04-27T11:00:45.697Z,185
2016-04-27T11:01:45.715Z,205
2016-04-27T11:02:45.686Z,225
2016-04-27T11:03:45.705Z,230
2016-04-27T11:04:45.708Z,240
2016-04-27T11:05:45.742Z,235
2016-04-27T11:06:45.713Z,225
2016-04-27T11:07:45.949Z,215
2016-04-27T11:08:45.656Z,205
2016-04-27T11:09:45.752Z,175
2016-04-27T11:10:45.724Z,160
2016-04-27T11:11:45.946Z,175
2016-04-27T11:12:45.729Z,185
2016-04-27T11:13:45.732Z,175
2016-04-27T11:14:45.751Z,170
2016-04-27T11:15:45.753Z,195
2016-04-27T11:16:47.961Z,205
2016-04-27T11:17:45.789Z,205
2016-04-27T11:18:45.762Z,215
2016-04-27T11:19:45.826Z,230
2016-04-27T11:20:45.767Z,230
2016-04-27T11:21:46.019Z,210
2016-04-27T11:22:46.162Z,195
2016-04-27T11:23:48.667Z,165
2016-04-27T11:24:45.792Z,135
2016-04-27T11:25:45.780Z,100
2016-04-27T11:26:45.814Z,70
2016-04-27T11:27:45.816Z,45
2016-04-27T11:28:45.819Z,35
2016-04-27T11:29:45.806Z,25
2016-04-27T11:30:45.825Z,15
2016-04-27T11:31:49.455Z,15
2016-04-27T11:32:45.814Z,10
2016-04-27T11:33:45.864Z,10
2016-04-27T11:34:45.850Z,10
2016-04-27T11:35:45.838Z,10
2016-04-27T11:36:45.856Z,5
2016-04-27T11:37:46.578Z,5
2016-04-27T11:38:48.380Z,10
2016-04-27T11:39:45.849Z,15
2016-04-27T11:40:45.898Z,15
2016-04-27T11:41:45.869Z,25
2016-04-27T11:42:45.857Z,40
2016-04-27T11:43:45.860Z,45
2016-04-27T11:44:45.893Z,50
2016-04-27T11:45:45.865Z,50
2016-04-27T11:46:45.851Z,55
2016-04-27T11:47:45.885Z,65
2016-04-27T11:48:45.873Z,85
2016-04-27T11:49:45.903Z,95
2016-04-27T11:50:45.951Z,105
2016-04-27T11:51:45.998Z,125
2016-04-27T11:52:46.140Z,140
2016-04-27T11:53:46.390Z,155
2016-04-27T11:54:46.124Z,160
2016-04-27T11:55:46.158Z,165
2016-04-27T11:56:46.162Z,150
2016-04-27T11:57:46.180Z,155
2016-04-27T11:58:46.199Z,155
2016-04-27T11:59:46.211Z,145
2016-04-27T12:00:46.235Z,130
2016-04-27T12:01:46.243Z,125
2016-04-27T12:02:46.251Z,120
2016-04-27T12:03:46.245Z,115
2016-04-27T12:04:46.267Z,110
2016-04-27T12:05:46.272Z,110
2016-04-27T12:06:46.277Z,105
2016-04-27T12:07:47.922Z,105
2016-04-27T12:08:46.896Z,100
2016-04-27T12:09:46.290Z,100
2016-04-27T12:10:46.294Z,100
2016-04-27T12:11:46.298Z,95
2016-04-27T12:12:46.301Z,95
2016-04-27T12:13:46.289Z,95
2016-04-27T12:14:46.308Z,95
2016-04-27T12:15:46.780Z,95
2016-04-27T12:16:46.314Z,95
2016-04-27T12:17:46.349Z,90
2016-04-27T12:18:46.305Z,90
2016-04-27T12:19:46.322Z,90
2016-04-27T12:20:46.342Z,90
2016-04-27T12:21:46.313Z,90
2016-04-27T12:22:46.580Z,90
2016-04-27T12:23:47.630Z,90
2016-04-27T12:24:48.228Z,90
2016-04-27T12:25:46.355Z,90
2016-04-27T12:26:46.358Z,90
2016-04-27T12:27:46.344Z,85
2016-04-27T12:28:46.363Z,85
2016-04-27T12:29:48.412Z,85
2016-04-27T12:30:46.384Z,85
2016-04-27T12:31:46.387Z,85
2016-04-27T12:32:46.374Z,90
2016-04-27T12:33:46.376Z,90
2016-04-27T12:34:48.301Z,90
2016-04-27T12:35:46.398Z,75
2016-04-27T12:36:46.384Z,90
2016-04-27T12:37:47.840Z,100
2016-04-27T12:38:46.281Z,135
2016-04-27T12:39:47.518Z,140
2016-04-27T12:40:46.396Z,140
2016-04-27T12:41:46.414Z,135
2016-04-27T12:42:46.432Z,155
2016-04-27T12:43:46.387Z,155
2016-04-27T12:44:46.406Z,115
2016-04-27T12:45:46.393Z,100
2016-04-27T12:46:46.395Z,95
2016-04-27T12:47:46.414Z,115
2016-04-27T12:48:46.401Z,95
2016-04-27T12:49:46.591Z,95
2016-04-27T12:50:46.438Z,115
2016-04-27T12:51:46.425Z,145
2016-04-27T12:52:46.443Z,140
2016-04-27T12:53:46.243Z,150
2016-04-27T12:54:48.964Z,140
2016-04-27T12:55:46.435Z,130
2016-04-27T12:56:46.438Z,115
2016-04-27T12:57:46.435Z,110
2016-04-27T12:58:46.438Z,110
2016-04-27T12:59:46.441Z,95
2016-04-27T13:00:46.443Z,110
2016-04-27T13:01:46.445Z,110
2016-04-27T13:02:46.465Z,110
2016-04-27T13:03:46.451Z,105
2016-04-27T13:04:46.454Z,100
2016-04-27T13:05:46.473Z,95
2016-04-27T13:06:46.475Z,95
2016-04-27T13:07:46.477Z,95
2016-04-27T13:08:46.355Z,95
2016-04-27T13:09:46.514Z,95
2016-04-27T13:10:46.470Z,100
2016-04-27T13:11:46.489Z,110
2016-04-27T13:12:47.007Z,105
2016-04-27T13:13:46.478Z,95
2016-04-27T13:14:46.497Z,100
2016-04-27T13:15:46.484Z,100
2016-04-27T13:16:46.502Z,110
2016-04-27T13:17:46.505Z,110
2016-04-27T13:18:47.398Z,110
2016-04-27T13:19:46.495Z,105
2016-04-27T13:20:46.513Z,110
2016-04-27T13:21:46.500Z,125
2016-04-27T13:22:47.283Z,110
2016-04-27T13:23:48.630Z,110
2016-04-27T13:24:46.508Z,110
2016-04-27T13:25:46.510Z,115
2016-04-27T13:26:46.529Z,115
2016-04-27T13:27:46.532Z,95
2016-04-27T13:28:46.519Z,90
2016-04-27T13:29:46.537Z,95
2016-04-27T13:30:46.540Z,105
2016-04-27T13:31:46.526Z,125
2016-04-27T13:32:46.529Z,140
2016-04-27T13:33:46.548Z,150
2016-04-27T13:34:46.534Z,160
2016-04-27T13:35:46.537Z,170
2016-04-27T13:36:46.540Z,170
2016-04-27T13:37:46.543Z,160
2016-04-27T13:38:49.436Z,155
2016-04-27T13:39:46.548Z,150
2016-04-27T13:40:46.551Z,135
2016-04-27T13:41:46.569Z,135
2016-04-27T13:42:46.588Z,140
2016-04-27T13:43:46.575Z,145
2016-04-27T13:44:46.578Z,140
2016-04-27T13:45:46.580Z,140
2016-04-27T13:46:46.582Z,140
2016-04-27T13:47:46.586Z,165
2016-04-27T13:48:46.588Z,180
2016-04-27T13:49:46.418Z,165
2016-04-27T13:50:46.594Z,135
2016-04-27T13:51:46.596Z,110
2016-04-27T13:52:46.599Z,105
2016-04-27T13:53:47.836Z,105
2016-04-27T13:54:46.448Z,95
2016-04-27T13:55:46.451Z,90
2016-04-27T13:56:46.625Z,90
2016-04-27T13:57:46.597Z,85
2016-04-27T13:58:47.662Z,85
2016-04-27T13:59:46.618Z,80
2016-04-27T14:00:46.604Z,80
2016-04-27T14:01:46.607Z,80
2016-04-27T14:02:46.625Z,75
2016-04-27T14:03:47.784Z,75
2016-04-27T14:04:46.616Z,75
2016-04-27T14:05:46.649Z,75
2016-04-27T14:06:46.620Z,70
2016-04-27T14:07:46.639Z,70
2016-04-27T14:08:46.595Z,70